Time;durP1;ratioP1;P1;durP2;ratioP2;P2;SDS_P1;SDS_P2;PMS_P1;PMS_P2;Temp;Humidity;BMP_temperature;BMP_pressure;BME280_temperature;BME280_humidity;BME280_pressure;Samples;Min_cycle;Max_cycle;Signal;HPM_P1;HPM_P2
2022/06/19 00:00:46;;;;;;;28.02;5.05;;;;;;;15.89;75.11;100746.88;5113788;28;20032;-48
2022/06/19 00:03:22;;;;;;;19.30;3.88;;;;;;;15.84;74.55;100742.50;5113429;28;20031;-46
2022/06/19 00:05:47;;;;;;;24.10;4.50;;;;;;;15.76;74.89;100753.72;5112913;28;20073;-47
2022/06/19 00:08:13;;;;;;;17.88;3.80;;;;;;;15.69;75.56;100759.72;5113265;28;20028;-48
2022/06/19 00:10:38;;;;;;;15.55;4.13;;;;;;;15.64;75.37;100753.63;5113890;28;20383;-48
2022/06/19 00:13:03;;;;;;;21.48;4.40;;;;;;;15.58;75.60;100733.66;5112718;28;20016;-46
2022/06/19 00:15:29;;;;;;;24.33;5.13;;;;;;;15.56;75.23;100732.78;5113627;28;20425;-46
2022/06/19 00:17:54;;;;;;;29.25;4.82;;;;;;;15.52;75.78;100728.41;5113372;28;20034;-48
2022/06/19 00:20:19;;;;;;;26.95;4.18;;;;;;;15.46;76.01;100737.03;5112588;28;20020;-50
2022/06/19 00:22:46;;;;;;;20.38;3.90;;;;;;;15.44;75.67;100737.88;5113412;28;20475;-48
2022/06/19 00:25:12;;;;;;;26.80;5.05;;;;;;;15.37;76.30;100736.09;5113020;28;20035;-46
2022/06/19 00:27:39;;;;;;;24.15;4.20;;;;;;;15.30;76.36;100741.22;5113000;28;20055;-46
2022/06/19 00:30:07;;;;;;;21.00;4.22;;;;;;;15.27;76.07;100741.22;5113360;28;20023;-45
2022/06/19 00:32:32;;;;;;;28.27;4.57;;;;;;;15.25;75.78;100749.84;5113302;28;20030;-48
2022/06/19 00:34:58;;;;;;;26.40;4.82;;;;;;;15.20;76.41;100762.78;5112477;28;20024;-49
2022/06/19 00:37:23;;;;;;;20.05;4.65;;;;;;;15.14;76.32;100775.69;5113164;28;20019;-47
2022/06/19 00:39:48;;;;;;;23.67;4.20;;;;;;;15.09;76.04;100770.47;5112583;28;20051;-45
2022/06/19 00:42:16;;;;;;;24.88;4.10;;;;;;;15.03;75.90;100759.13;5113152;28;20028;-47
2022/06/19 00:44:41;;;;;;;;;;;;;;;15.07;74.18;100754.00;5113752;28;20034;-49
2022/06/19 00:47:16;;;;;;;24.23;5.18;;;;;;;14.92;74.80;100764.22;5112259;28;19916;-45
2022/06/19 00:49:56;;;;;;;29.13;4.78;;;;;;;14.82;74.59;100768.44;5113175;28;20030;-48
2022/06/19 00:52:39;;;;;;;25.15;5.18;;;;;;;14.79;73.62;100763.22;5113065;28;20490;-48
2022/06/19 00:55:13;;;;;;;20.33;4.55;;;;;;;14.70;73.46;100761.41;5112114;28;20452;-47
2022/06/19 00:57:42;;;;;;;24.75;4.05;;;;;;;14.65;73.51;100761.38;5113044;28;20122;-48
2022/06/19 01:00:13;;;;;;;28.77;4.00;;;;;;;14.61;72.87;100762.13;5112798;28;20111;-46
2022/06/19 01:02:41;;;;;;;29.13;6.20;;;;;;;14.57;72.87;100762.09;5112329;28;20039;-48
2022/06/19 01:05:09;;;;;;;34.25;5.13;;;;;;;14.52;72.88;100761.16;5112947;28;20034;-48
2022/06/19 01:07:35;;;;;;;30.83;4.55;;;;;;;14.48;72.31;100752.47;5113126;28;20471;-49
2022/06/19 01:10:00;;;;;;;24.45;4.15;;;;;;;14.44;71.69;100743.78;5111973;28;20057;-49
2022/06/19 01:12:26;;;;;;;21.95;4.20;;;;;;;14.43;71.37;100748.94;5112877;28;20024;-49
2022/06/19 01:15:00;;;;;;;25.63;4.45;;;;;;;14.39;71.47;100752.38;5112773;28;20059;-49
2022/06/19 01:17:25;;;;;;;25.17;4.25;;;;;;;14.39;71.29;100773.97;5113082;28;20020;-48
2022/06/19 01:19:51;;;;;;;29.40;4.82;;;;;;;14.35;71.23;100841.34;5113339;28;20081;-50
2022/06/19 01:22:32;;;;;;;20.77;4.03;;;;;;;14.32;71.02;100930.31;5116070;28;20139;-49
2022/06/19 01:25:06;;;;;;;20.67;3.60;;;;;;;14.35;71.64;100914.78;5116655;28;20059;-49
2022/06/19 01:30:19;;;;;;;26.58;5.55;;;;;;;14.28;69.76;100823.09;5116200;28;20161;-49
2022/06/19 01:32:47;;;;;;;28.02;3.55;;;;;;;14.21;68.81;100870.50;5116846;28;20102;-49
2022/06/19 01:35:15;;;;;;;24.05;4.10;;;;;;;14.14;68.96;100892.88;5116448;28;20110;-50
2022/06/19 01:37:42;;;;;;;22.35;3.78;;;;;;;14.08;68.15;100846.13;5115762;28;20103;-47
2022/06/19 01:40:19;;;;;;;26.70;4.17;;;;;;;14.02;67.95;100824.44;5116116;28;20035;-49
2022/06/19 01:42:44;;;;;;;18.40;3.85;;;;;;;13.93;67.61;100861.44;5116629;28;20266;-50
2022/06/19 01:45:11;;;;;;;29.60;4.07;;;;;;;13.88;67.33;100894.16;5115466;28;20034;-49
2022/06/19 01:47:37;;;;;;;26.55;4.90;;;;;;;13.79;67.77;100872.44;5116499;28;20032;-49
2022/06/19 01:50:07;;;;;;;29.23;3.88;;;;;;;13.76;67.79;100861.16;5116051;28;20040;-48
2022/06/19 01:52:33;;;;;;;30.92;4.45;;;;;;;13.69;67.01;100875.72;5116254;28;20024;-46
2022/06/19 01:55:06;;;;;;;26.42;4.10;;;;;;;13.64;67.25;100867.00;5116229;28;20060;-50
2022/06/19 01:57:34;;;;;;;22.92;3.22;;;;;;;13.58;67.24;100859.13;5115144;28;20036;-48
2022/06/19 01:59:59;;;;;;;26.60;3.90;;;;;;;13.54;65.87;100881.50;5115812;28;20483;-50
2022/06/19 02:02:25;;;;;;;26.13;3.55;;;;;;;13.50;65.87;100867.66;5115993;28;20019;-50
2022/06/19 02:04:51;;;;;;;19.60;3.15;;;;;;;13.46;65.60;100881.34;5115040;28;20024;-50
2022/06/19 02:07:23;;;;;;;27.17;4.28;;;;;;;13.44;65.08;100877.88;5116114;28;20043;-49
2022/06/19 02:09:51;;;;;;;24.35;3.15;;;;;;;13.44;62.82;100882.19;5116148;28;20068;-49
2022/06/19 02:12:17;;;;;;;28.45;3.72;;;;;;;13.45;62.69;100871.88;5115073;28;20084;-49
2022/06/19 02:14:42;;;;;;;28.52;3.75;;;;;;;13.44;63.07;100888.25;5115835;28;20023;-48
2022/06/19 02:17:15;;;;;;;24.05;3.45;;;;;;;13.42;63.54;100879.56;5115595;28;20027;-49
2022/06/19 02:19:40;;;;;;;18.40;3.00;;;;;;;13.42;62.66;100864.03;5114849;28;20061;-50
2022/06/19 02:22:11;;;;;;;21.90;3.83;;;;;;;13.42;62.58;100861.44;5115767;28;20024;-50
2022/06/19 02:24:37;;;;;;;21.83;3.40;;;;;;;13.44;61.93;100877.00;5115771;28;20140;-49
2022/06/19 02:27:04;;;;;;;20.15;3.33;;;;;;;13.42;63.20;100873.53;5114680;28;20186;-49
2022/06/19 02:29:29;;;;;;;24.27;2.85;;;;;;;13.41;62.60;100867.47;5115550;28;20015;-49
2022/06/19 02:31:56;;;;;;;23.25;3.85;;;;;;;13.38;63.18;100882.09;5114136;28;20031;-49
2022/06/19 02:34:25;;;;;;;28.75;4.00;;;;;;;13.38;61.77;100893.31;5114786;28;20034;-49
2022/06/19 02:36:58;;;;;;;19.85;3.38;;;;;;;13.40;61.18;100895.91;5115414;28;20016;-49
2022/06/19 02:39:37;;;;;;;22.38;2.67;;;;;;;13.42;60.87;100897.69;5114536;28;20028;-50
2022/06/19 02:42:05;;;;;;;24.98;3.65;;;;;;;13.46;60.66;100896.91;5115197;28;20023;-49
2022/06/19 02:44:37;;;;;;;19.08;3.03;;;;;;;13.52;59.92;100890.09;5115209;28;20161;-49
2022/06/19 02:47:04;;;;;;;22.30;3.60;;;;;;;13.58;58.34;100892.78;5114494;28;20114;-49
2022/06/19 02:49:29;;;;;;;21.38;3.17;;;;;;;13.64;58.76;100879.97;5115093;28;20024;-47
2022/06/19 02:51:55;;;;;;;17.25;2.50;;;;;;;13.64;59.15;100877.38;5115056;28;20027;-50
2022/06/19 02:54:20;;;;;;;21.98;2.95;;;;;;;13.63;59.30;100875.63;5114358;28;20027;-49
2022/06/19 02:56:45;;;;;;;17.63;2.75;;;;;;;13.63;59.30;100883.38;5114894;28;20043;-50
2022/06/19 02:59:10;;;;;;;16.67;2.72;;;;;;;13.61;60.31;100885.09;5114551;28;20081;-49
2022/06/19 03:01:36;;;;;;;17.55;3.00;;;;;;;13.60;60.52;100929.97;5114376;28;20114;-49
2022/06/19 03:04:01;;;;;;;15.40;2.60;;;;;;;13.58;60.55;101004.13;5114882;28;20023;-49
2022/06/19 03:06:27;;;;;;;16.02;2.58;;;;;;;13.63;60.32;101007.69;5115021;28;20024;-49
2022/06/19 03:08:53;;;;;;;17.55;2.20;;;;;;;13.65;60.23;100975.81;5113822;28;20106;-48
2022/06/19 03:11:18;;;;;;;12.52;2.42;;;;;;;13.63;60.48;100942.94;5114677;28;20103;-49
2022/06/19 03:13:43;;;;;;;15.02;2.67;;;;;;;13.57;59.64;100917.81;5114602;28;20424;-49
2022/06/19 03:16:10;;;;;;;16.08;2.40;;;;;;;13.50;59.87;100909.06;5113526;28;20035;-48
2022/06/19 03:18:36;;;;;;;21.30;2.33;;;;;;;13.46;59.56;100927.97;5114726;28;20148;-48
2022/06/19 03:21:02;;;;;;;15.63;2.63;;;;;;;13.45;58.73;100910.72;5114234;28;20019;-49
2022/06/19 03:23:28;;;;;;;17.60;2.05;;;;;;;13.40;59.05;100890.72;5113588;28;20020;-49
2022/06/19 03:25:53;;;;;;;12.85;2.28;;;;;;;13.36;59.00;100869.06;5114156;28;20053;-49
2022/06/19 03:28:18;;;;;;;19.25;2.50;;;;;;;13.34;57.67;100865.59;5114267;28;20019;-50
2022/06/19 03:30:44;;;;;;;12.70;1.65;;;;;;;13.32;58.31;100887.97;5113743;28;20027;-49
2022/06/19 03:33:09;;;;;;;14.30;1.98;;;;;;;13.29;58.58;100918.97;5114195;28;20032;-50
2022/06/19 03:35:34;;;;;;;12.30;2.00;;;;;;;13.27;58.52;100902.53;5113797;28;20027;-49
2022/06/19 03:38:00;;;;;;;17.60;1.90;;;;;;;13.26;58.12;100877.50;5113757;28;20150;-48
2022/06/19 03:40:25;;;;;;;21.92;2.13;;;;;;;13.25;57.26;100861.09;5114031;28;20653;-49
2022/06/19 03:42:50;;;;;;;13.07;1.88;;;;;;;13.25;58.06;100844.72;5112772;28;20020;-49
2022/06/19 03:45:16;;;;;;;12.95;1.88;;;;;;;13.23;57.64;100847.25;5114123;28;20023;-45
2022/06/19 03:47:41;;;;;;;8.68;1.83;;;;;;;13.21;57.89;100848.06;5114246;28;20379;-48
2022/06/19 03:50:07;;;;;;;15.35;2.20;;;;;;;13.21;58.95;100814.41;5113043;28;20031;-50
2022/06/19 03:52:33;;;;;;;15.75;2.15;;;;;;;13.18;57.53;100839.41;5113841;28;20020;-48
2022/06/19 03:54:58;;;;;;;19.42;2.50;;;;;;;13.16;58.05;100877.31;5113673;28;20024;-49
2022/06/19 03:57:24;;;;;;;17.08;2.20;;;;;;;13.17;56.92;100935.16;5112754;28;20043;-46
2022/06/19 03:59:50;;;;;;;9.23;1.50;;;;;;;13.21;56.46;100959.34;5113769;28;20039;-46
2022/06/19 04:02:15;;;;;;;20.80;2.10;;;;;;;13.21;55.99;100912.75;5113843;28;20030;-49
2022/06/19 04:04:41;;;;;;;20.30;1.90;;;;;;;13.23;55.53;100909.38;5112786;28;20371;-49
2022/06/19 04:07:09;;;;;;;10.45;1.58;;;;;;;13.23;55.29;100901.59;5113518;28;20027;-49
2022/06/19 04:09:35;;;;;;;13.07;1.63;;;;;;;13.22;55.47;100853.28;5113620;28;20103;-48
2022/06/19 04:12:00;;;;;;;9.43;1.65;;;;;;;13.21;55.93;100848.97;5112520;28;20110;-49
2022/06/19 04:14:25;;;;;;;16.70;2.20;;;;;;;13.20;56.49;100834.25;5113718;28;20085;-49
2022/06/19 04:16:51;;;;;;;14.13;2.05;;;;;;;13.20;57.13;100821.31;5113493;28;20051;-50
2022/06/19 04:19:16;;;;;;;18.27;2.60;;;;;;;13.20;57.92;100789.41;5112747;28;20496;-50
2022/06/19 04:21:45;;;;;;;15.48;2.72;;;;;;;13.22;58.53;100773.06;5113490;28;20023;-49
2022/06/19 04:24:12;;;;;;;11.48;2.08;;;;;;;13.26;59.14;100755.84;5113196;28;20030;-49
2022/06/19 04:26:39;;;;;;;;;;;;;;;13.33;58.66;100734.41;5113036;28;20023;-50
2022/06/19 04:29:06;;;;;;;11.98;2.08;;;;;;;13.31;60.01;100725.75;5113369;28;19954;-50
2022/06/19 04:31:32;;;;;;;16.27;2.50;;;;;;;13.33;59.76;100714.56;5113726;28;20083;-48
2022/06/19 04:33:58;;;;;;;19.48;2.30;;;;;;;13.40;59.74;100707.81;5112508;28;20020;-48
2022/06/19 04:36:25;;;;;;;17.08;2.75;;;;;;;13.47;59.92;100701.88;5113247;28;20385;-50
2022/06/19 04:38:54;;;;;;;20.60;2.20;;;;;;;13.54;59.77;100727.88;5112954;28;20125;-49
2022/06/19 04:41:22;;;;;;;20.65;2.90;;;;;;;13.61;59.91;100724.53;5113011;28;20023;-48
2022/06/19 04:43:48;;;;;;;21.27;2.35;;;;;;;13.66;60.30;100715.13;5113400;28;20028;-49
2022/06/19 04:46:13;;;;;;;20.13;2.28;;;;;;;13.73;60.25;100714.34;5112342;28;20026;-48
2022/06/19 04:48:39;;;;;;;15.38;2.10;;;;;;;13.80;60.39;100720.47;5113272;28;20019;-50
2022/06/19 04:51:05;;;;;;;16.25;2.00;;;;;;;13.88;59.54;100712.81;5113053;28;20040;-50
2022/06/19 04:53:32;;;;;;;13.10;2.08;;;;;;;13.95;59.61;100693.94;5112025;28;20470;-50
2022/06/19 04:55:59;;;;;;;19.25;2.38;;;;;;;14.02;59.43;100651.72;5115663;28;20099;-49
2022/06/19 04:58:24;;;;;;;19.85;2.42;;;;;;;14.03;58.89;100624.91;5116981;28;20510;-50
2022/06/19 05:00:51;;;;;;;11.15;2.10;;;;;;;14.04;58.99;100647.41;5116285;28;20027;-49
2022/06/19 05:03:19;;;;;;;17.25;2.65;;;;;;;14.10;59.89;100669.91;5117224;28;20040;-49
2022/06/19 05:05:45;;;;;;;16.15;1.88;;;;;;;14.10;59.07;100664.72;5117085;28;20030;-49
2022/06/19 05:08:11;;;;;;;14.73;2.40;;;;;;;14.10;60.46;100698.41;5116070;28;20045;-50
2022/06/19 05:10:36;;;;;;;15.23;3.08;;;;;;;14.13;60.14;100714.88;5117356;28;20028;-48
2022/06/19 05:13:04;;;;;;;15.80;2.33;;;;;;;14.13;60.65;100720.06;5116837;28;20020;-49
2022/06/19 05:15:29;;;;;;;;;;;;;;;14.25;60.41;100713.31;5116751;28;20102;-49
2022/06/19 05:17:55;;;;;;;21.83;2.73;;;;;;;14.24;60.64;100729.69;5116808;28;20347;-50
2022/06/19 05:20:20;;;;;;;20.35;2.70;;;;;;;14.31;60.30;100745.34;5116726;28;20034;-50
2022/06/19 05:22:45;;;;;;;13.68;2.00;;;;;;;14.34;59.77;100734.16;5116063;28;20095;-50
2022/06/19 05:25:11;;;;;;;15.48;2.00;;;;;;;14.35;58.62;100750.59;5116415;28;20110;-49
2022/06/19 05:27:39;;;;;;;11.57;1.52;;;;;;;14.37;60.65;100769.63;5116877;28;20027;-50
2022/06/19 05:30:06;;;;;;;11.65;1.73;;;;;;;14.40;59.86;100757.56;5115722;28;20374;-50
2022/06/19 05:32:32;;;;;;;;;;;;;;;14.50;59.79;100781.91;5116951;28;20027;-50
2022/06/19 05:34:57;;;;;;;18.90;2.50;;;;;;;14.51;61.17;100798.31;5116439;28;19957;-50
2022/06/19 05:37:23;;;;;;;14.50;1.85;;;;;;;14.56;59.44;100826.03;5115623;28;20110;-51
2022/06/19 05:39:48;;;;;;;18.77;2.17;;;;;;;14.62;60.51;100853.81;5116602;28;20031;-50
2022/06/19 05:42:15;;;;;;;13.70;2.00;;;;;;;14.74;60.98;100866.94;5115402;28;20023;-49
2022/06/19 05:44:40;;;;;;;11.63;2.00;;;;;;;14.94;59.82;100850.78;5116407;28;20016;-49
2022/06/19 05:47:05;;;;;;;14.30;2.40;;;;;;;15.19;59.84;100846.69;5116255;28;20031;-47
2022/06/19 05:49:33;;;;;;;15.45;2.20;;;;;;;15.42;58.53;100862.53;5115394;28;20038;-48
2022/06/19 05:51:59;;;;;;;12.77;2.00;;;;;;;15.58;57.82;100854.88;5115965;28;20513;-50
2022/06/19 05:54:26;;;;;;;12.55;1.60;;;;;;;15.72;56.58;100858.47;5116353;28;20016;-50
2022/06/19 05:56:51;;;;;;;16.95;2.00;;;;;;;15.85;57.46;100869.00;5115153;28;20039;-50
2022/06/19 05:59:17;;;;;;;17.48;1.95;;;;;;;15.86;56.73;100848.22;5116510;28;20073;-50
2022/06/19 06:01:42;;;;;;;13.48;1.80;;;;;;;15.79;56.84;100860.25;5116127;28;20635;-50
2022/06/19 06:04:08;;;;;;;20.45;2.35;;;;;;;15.69;56.92;100893.97;5114940;28;20020;-50
2022/06/19 06:06:33;;;;;;;12.90;2.13;;;;;;;15.66;57.93;100918.19;5115774;28;20031;-48
2022/06/19 06:08:59;;;;;;;23.83;2.50;;;;;;;15.58;57.72;100918.09;5115997;28;20520;-50
2022/06/19 06:11:24;;;;;;;16.67;2.97;;;;;;;15.47;57.93;100915.38;5115142;28;20031;-50
2022/06/19 06:13:50;;;;;;;16.52;2.13;;;;;;;15.39;58.29;100940.41;5115802;28;20019;-48
2022/06/19 06:16:18;;;;;;;15.82;2.08;;;;;;;15.36;59.42;100947.28;5115610;28;20069;-51
2022/06/19 06:18:44;;;;;;;16.77;2.35;;;;;;;15.40;59.60;100936.97;5114920;28;20035;-50
2022/06/19 06:21:21;;;;;;;18.50;2.40;;;;;;;15.50;59.42;100947.44;5115333;28;20036;-50
2022/06/19 06:23:47;;;;;;;9.73;2.05;;;;;;;15.65;59.11;100968.41;5115893;28;20020;-50
2022/06/19 06:26:22;;;;;;;17.60;2.03;;;;;;;15.67;59.26;100990.06;5114816;28;20051;-47
2022/06/19 06:28:49;;;;;;;23.23;2.10;;;;;;;15.60;59.97;100998.66;5115591;28;20053;-51
2022/06/19 06:31:16;;;;;;;19.08;2.53;;;;;;;15.54;58.87;101046.19;5115503;28;20038;-49
2022/06/19 06:33:42;;;;;;;15.90;2.45;;;;;;;15.42;59.67;101052.13;5114403;28;20023;-50
2022/06/19 06:36:08;;;;;;;15.48;2.47;;;;;;;15.24;60.43;101041.50;5115363;28;20023;-50
2022/06/19 06:38:34;;;;;;;12.70;2.13;;;;;;;15.09;62.81;101070.69;5114560;28;20482;-49
2022/06/19 06:40:59;;;;;;;18.63;3.13;;;;;;;14.98;64.38;101112.06;5115352;28;20112;-50
2022/06/19 06:43:25;;;;;;;14.93;2.72;;;;;;;14.85;66.15;101164.59;5115277;28;20024;-49
2022/06/19 06:45:52;;;;;;;12.65;2.05;;;;;;;14.69;67.92;101161.75;5114376;28;20028;-48
2022/06/19 06:48:19;;;;;;;20.08;2.85;;;;;;;14.59;67.82;101152.91;5115002;28;20020;-49
2022/06/19 06:50:45;;;;;;;15.88;2.30;;;;;;;14.49;69.83;101164.81;5115380;28;20031;-50
2022/06/19 06:53:11;;;;;;;19.95;2.50;;;;;;;14.36;70.45;101157.69;5113905;28;20034;-50
2022/06/19 06:55:44;;;;;;;22.33;2.97;;;;;;;14.27;70.37;101157.50;5115235;28;20051;-51
2022/06/19 06:58:10;;;;;;;16.98;2.60;;;;;;;14.27;73.19;101153.19;5114598;28;20096;-50
2022/06/19 07:00:35;;;;;;;21.67;3.15;;;;;;;14.29;71.12;101129.88;5114058;28;20169;-50
2022/06/19 07:03:01;;;;;;;18.73;2.78;;;;;;;14.35;72.42;101139.50;5114793;28;20019;-49
2022/06/19 07:05:27;;;;;;;15.00;2.20;;;;;;;14.35;68.12;101135.19;5114660;28;20035;-50
2022/06/19 07:07:53;;;;;;;26.42;3.22;;;;;;;14.31;67.16;101128.19;5113933;28;20019;-49
2022/06/19 07:10:19;;;;;;;14.32;2.25;;;;;;;14.25;66.90;101134.13;5114811;28;20024;-49
2022/06/19 07:12:45;;;;;;;18.25;2.60;;;;;;;14.25;69.71;101146.22;5114801;28;20050;-50
2022/06/19 07:15:11;;;;;;;13.05;2.17;;;;;;;14.19;67.14;101138.31;5113611;28;20473;-50
2022/06/19 07:17:36;;;;;;;13.40;2.00;;;;;;;14.15;68.96;101148.63;5113883;28;20383;-49
2022/06/19 07:20:03;;;;;;;16.67;2.38;;;;;;;14.07;69.58;101155.41;5114516;28;20020;-48
2022/06/19 07:22:28;;;;;;;14.38;2.20;;;;;;;14.09;70.91;101174.44;5113571;28;20024;-49
2022/06/19 07:24:53;;;;;;;14.98;2.42;;;;;;;14.09;71.89;101205.53;5114313;28;20030;-49
2022/06/19 07:27:18;;;;;;;13.63;2.15;;;;;;;14.03;70.87;101192.44;5114391;28;20023;-49
2022/06/19 07:29:45;;;;;;;12.10;2.25;;;;;;;13.97;71.49;101166.41;5113491;28;20023;-48
2022/06/19 07:32:12;;;;;;;22.85;2.83;;;;;;;13.76;72.19;101138.31;5114489;28;20348;-50
2022/06/19 07:34:38;;;;;;;24.63;3.03;;;;;;;13.52;76.07;101112.78;5114522;28;20050;-47
2022/06/19 07:37:04;;;;;;;14.32;2.60;;;;;;;13.29;78.00;101084.66;5113453;28;20077;-48
2022/06/19 07:39:30;;;;;;;19.42;2.88;;;;;;;13.10;79.64;101073.84;5114199;28;20094;-47
2022/06/19 07:41:55;;;;;;;21.77;3.53;;;;;;;12.91;82.24;101023.44;5113174;28;20102;-50
2022/06/19 07:44:21;;;;;;;21.50;3.30;;;;;;;12.78;83.03;101017.09;5114014;28;20047;-49
2022/06/19 07:52:14;;;;;;;21.95;3.85;;;;;;;12.67;86.00;100979.75;5114010;28;20497;-49
2022/06/19 07:54:39;;;;;;;18.85;3.53;;;;;;;12.67;86.90;100956.50;5113832;28;20024;-48
2022/06/19 07:57:05;;;;;;;25.55;3.80;;;;;;;12.66;86.79;100970.25;5112720;28;20079;-48
2022/06/19 07:59:30;;;;;;;21.45;3.58;;;;;;;12.70;86.58;101052.22;5113744;28;20028;-50
2022/06/19 08:01:55;;;;;;;22.35;4.47;;;;;;;12.80;88.96;101108.50;5113734;28;20030;-50
2022/06/19 08:04:21;;;;;;;18.90;3.95;;;;;;;12.92;89.08;101135.53;5112959;28;20463;-49
2022/06/19 08:06:47;;;;;;;22.58;4.07;;;;;;;13.01;89.80;101136.63;5113837;28;20024;-50
2022/06/19 08:09:12;;;;;;;22.02;3.05;;;;;;;13.06;86.40;101118.63;5113351;28;20023;-49
2022/06/19 08:11:37;;;;;;;27.88;4.43;;;;;;;13.10;87.07;101084.22;5112700;28;20024;-50
2022/06/19 08:14:02;;;;;;;22.33;3.78;;;;;;;13.12;88.28;101060.97;5113398;28;20030;-50
2022/06/19 08:16:28;;;;;;;26.77;4.35;;;;;;;13.08;87.60;101064.31;5113625;28;20524;-50
2022/06/19 08:18:53;;;;;;;21.58;3.88;;;;;;;13.02;87.84;101052.13;5112554;28;20031;-49
2022/06/19 08:21:18;;;;;;;23.85;4.30;;;;;;;12.94;88.10;101040.72;5113234;28;20024;-50
2022/06/19 08:23:44;;;;;;;24.50;4.80;;;;;;;12.96;89.13;101106.31;5113410;28;20032;-50
2022/06/19 08:26:09;;;;;;;30.23;4.80;;;;;;;13.08;89.72;101106.59;5112363;28;20031;-50
2022/06/19 08:28:39;;;;;;;24.55;6.03;;;;;;;13.25;90.59;101083.69;5113573;28;20019;-50
2022/06/19 08:31:05;;;;;;;24.60;4.35;;;;;;;13.36;90.54;101059.75;5111410;28;20506;-50
2022/06/19 08:33:31;;;;;;;33.60;4.88;;;;;;;13.46;91.10;101057.41;5113416;28;20099;-49
2022/06/19 08:36:01;;;;;;;27.73;5.63;;;;;;;13.58;90.94;101045.56;5113240;28;20100;-49
2022/06/19 08:38:33;;;;;;;26.17;5.15;;;;;;;13.78;91.92;101049.44;5112469;28;20032;-49
2022/06/19 08:41:26;;;;;;;35.70;6.10;;;;;;;13.89;92.15;101025.47;5113093;28;20039;-47
2022/06/19 08:44:26;;;;;;;36.63;6.00;;;;;;;13.81;89.76;101020.13;5113058;28;20031;-50
2022/06/19 08:47:12;;;;;;;33.15;6.90;;;;;;;13.62;90.43;101000.75;5112230;28;20054;-50
2022/06/19 08:49:59;;;;;;;31.50;6.63;;;;;;;13.49;90.97;100969.47;5113426;28;20050;-50
2022/06/19 08:52:49;;;;;;;37.72;7.18;;;;;;;13.45;92.64;100946.06;5112370;28;20047;-50
2022/06/19 08:55:33;;;;;;;31.60;7.50;;;;;;;13.44;93.60;100963.31;5113103;28;20115;-49
2022/06/19 08:58:11;;;;;;;32.10;7.82;;;;;;;13.47;94.10;100955.59;5112941;28;20035;-49
2022/06/19 09:00:46;;;;;;;;;;;;;;;13.50;90.67;100968.63;5112790;28;20037;-50
2022/06/19 09:05:36;;;;;;;29.25;5.47;;;;;;;13.37;90.04;100966.63;5112757;28;19954;-49
2022/06/19 09:06:23;;;;;;;22.48;5.03;;;;;;;13.57;91.71;100972.22;5111904;28;20044;-49
2022/06/19 09:09:05;;;;;;;26.17;4.68;;;;;;;13.76;89.23;100991.56;5113039;28;20028;-48
2022/06/19 09:12:18;;;;;;;23.75;4.93;;;;;;;14.04;87.71;101005.00;5112892;28;20144;-48
2022/06/19 09:15:05;;;;;;;38.28;5.65;;;;;;;14.43;88.58;101008.25;5104788;28;20100;-47
2022/06/19 09:17:59;;;;;;;28.77;5.85;;;;;;;14.86;87.37;101005.47;5112765;28;20024;-50
2022/06/19 09:20:44;;;;;;;21.85;5.80;;;;;;;15.48;87.03;101051.34;5100768;28;20486;-50
2022/06/19 09:23:28;;;;;;;32.60;6.75;;;;;;;15.74;80.84;101079.38;5112748;28;20032;-50
2022/06/19 09:26:08;;;;;;;23.08;5.63;;;;;;;15.89;80.07;101099.47;5109539;28;20031;-48
2022/06/19 09:28:49;;;;;;;25.17;5.75;;;;;;;16.10;77.58;101098.84;5112127;28;20024;-49
2022/06/19 09:31:28;;;;;;;24.23;5.15;;;;;;;16.28;77.53;101090.34;5112801;28;20098;-49
2022/06/19 09:34:18;;;;;;;29.48;4.90;;;;;;;16.40;77.30;101093.09;5112722;28;20055;-48
2022/06/19 09:37:10;;;;;;;23.02;5.25;;;;;;;16.43;76.07;101093.09;5112781;28;20546;-50
2022/06/19 09:39:51;;;;;;;22.55;4.93;;;;;;;16.41;76.50;101092.22;5112736;28;20043;-50
2022/06/19 09:42:24;;;;;;;20.77;4.70;;;;;;;16.63;75.57;101079.44;5114661;28;20039;-51
2022/06/19 09:45:07;;;;;;;27.45;5.63;;;;;;;16.64;73.31;101070.72;5116385;28;20043;-46
2022/06/19 09:47:43;;;;;;;26.27;4.65;;;;;;;16.46;72.63;101061.94;5116400;28;20054;-49
2022/06/19 09:50:23;;;;;;;23.40;4.20;;;;;;;16.49;72.43;101042.00;5115587;28;20493;-49
2022/06/19 09:53:09;;;;;;;22.33;4.10;;;;;;;16.72;72.74;101021.34;5116389;28;20038;-50
2022/06/19 09:55:43;;;;;;;29.27;5.00;;;;;;;17.02;71.32;101015.50;5115342;28;20046;-50
2022/06/19 09:58:16;;;;;;;21.13;3.78;;;;;;;17.48;70.31;101024.41;5115810;28;20043;-50
2022/06/19 10:00:46;;;;;;;22.05;4.05;;;;;;;17.76;67.62;101020.16;5116230;28;20068;-50
2022/06/19 10:03:25;;;;;;;19.05;3.92;;;;;;;17.59;63.86;101018.34;5115030;28;20491;-50
2022/06/19 10:05:54;;;;;;;15.93;3.25;;;;;;;17.65;65.11;101001.88;5115845;28;20019;-49
2022/06/19 10:08:36;;;;;;;15.30;3.25;;;;;;;17.81;63.94;100991.50;5115766;28;20026;-51
2022/06/19 10:11:07;;;;;;;22.30;3.60;;;;;;;17.99;63.52;100981.13;5115223;28;20085;-49
2022/06/19 10:13:48;;;;;;;14.57;3.75;;;;;;;18.32;66.46;100978.50;5116061;28;20023;-48
2022/06/19 10:16:52;;;;;;;13.40;3.60;;;;;;;18.87;63.30;100974.97;5115519;28;20115;-49
2022/06/19 10:19:22;;;;;;;22.10;4.60;;;;;;;19.02;60.40;100968.88;5111487;28;20069;-46
2022/06/19 10:22:15;;;;;;;15.48;3.63;;;;;;;18.99;59.13;100961.91;5115852;28;20027;-48
2022/06/19 10:25:09;;;;;;;13.90;2.80;;;;;;;19.46;61.95;100951.22;5114970;28;20390;-49
2022/06/19 10:27:57;;;;;;;18.45;3.25;;;;;;;20.28;58.59;100938.44;5115870;28;20028;-48
2022/06/19 10:30:25;;;;;;;16.15;2.60;;;;;;;20.76;50.47;100945.88;5115505;28;20043;-46
2022/06/19 10:33:25;;;;;;;12.00;2.30;;;;;;;21.13;54.87;100949.78;5114656;28;20042;-47
2022/06/19 10:36:05;;;;;;;16.38;2.80;;;;;;;21.32;50.92;100946.03;5115591;28;20121;-47
2022/06/19 10:38:43;;;;;;;10.60;2.58;;;;;;;21.76;52.40;100966.47;5114689;28;20043;-46
2022/06/19 10:42:01;;;;;;;15.73;2.80;;;;;;;22.07;49.52;100982.59;5115169;28;20073;-47
2022/06/19 10:44:57;;;;;;;18.02;3.25;;;;;;;21.09;49.95;100971.69;5110171;28;20287;-46
2022/06/19 10:47:54;;;;;;;19.02;2.40;;;;;;;20.58;51.73;100956.50;5115254;28;20031;-47
2022/06/19 10:50:54;;;;;;;13.52;2.53;;;;;;;21.28;51.59;100954.84;5115292;28;20044;-45
2022/06/19 10:53:56;;;;;;;17.17;2.55;;;;;;;22.15;49.71;100954.44;5113357;28;20034;-49
2022/06/19 10:56:33;;;;;;;12.30;2.97;;;;;;;22.88;44.53;100976.81;5114710;28;20039;-47
2022/06/19 10:58:59;;;;;;;12.43;2.40;;;;;;;23.17;44.23;100991.16;5114005;28;20856;-48
2022/06/19 11:04:16;;;;;;;12.85;2.30;;;;;;;22.48;46.17;101019.59;5114943;28;20041;-49
2022/06/19 11:06:57;;;;;;;13.57;2.25;;;;;;;22.15;47.61;101016.56;5114044;28;20023;-47
2022/06/19 11:09:32;;;;;;;13.95;2.78;;;;;;;22.06;49.54;101014.09;5115019;28;20077;-46
2022/06/19 11:12:05;;;;;;;12.43;2.65;;;;;;;22.38;48.72;101018.00;5114688;28;20075;-48
2022/06/19 11:14:38;;;;;;;16.67;2.67;;;;;;;22.48;47.16;101020.44;5113762;28;20027;-47
2022/06/19 11:17:07;;;;;;;16.75;3.42;;;;;;;22.13;48.42;101010.47;5114549;28;20020;-47
2022/06/19 11:19:37;;;;;;;12.02;2.33;;;;;;;21.71;44.95;101024.22;5114467;28;20055;-46
2022/06/19 11:22:06;;;;;;;13.10;2.30;;;;;;;21.36;47.69;101026.38;5113807;28;20033;-46
2022/06/19 11:24:36;;;;;;;12.93;2.17;;;;;;;21.08;47.79;101040.72;5114663;28;20055;-48
2022/06/19 11:27:02;;;;;;;13.73;2.58;;;;;;;21.05;48.18;101052.09;5113590;28;20031;-47
2022/06/19 11:29:28;;;;;;;14.80;2.42;;;;;;;21.30;51.38;101046.56;5114216;28;20030;-46
2022/06/19 11:32:09;;;;;;;16.15;2.88;;;;;;;21.38;49.47;101056.09;5114295;28;20049;-47
2022/06/19 11:34:44;;;;;;;9.63;2.42;;;;;;;21.24;49.95;101057.13;5113688;28;20042;-48
2022/06/19 11:37:32;;;;;;;12.38;2.90;;;;;;;21.14;50.01;101053.75;5113971;28;20916;-47
2022/06/19 11:39:57;;;;;;;15.55;3.17;;;;;;;21.12;50.71;101055.50;5113730;28;20080;-48
2022/06/19 11:42:22;;;;;;;10.77;2.58;;;;;;;21.18;50.13;101061.53;5113520;28;20024;-48
2022/06/19 11:44:54;;;;;;;12.37;2.77;;;;;;;21.42;50.26;101061.28;5114247;28;20098;-50